createdAt,value
2023-02-04T00:00:06.206Z,1022.88
2023-02-04T00:00:38.886Z,1022.87
2023-02-04T00:01:11.350Z,1022.88
2023-02-04T00:01:46.626Z,1022.88
2023-02-04T00:02:22.605Z,1022.89
2023-02-04T00:02:55.138Z,1022.88
2023-02-04T00:03:27.543Z,1022.89
2023-02-04T00:04:01.657Z,1022.90
2023-02-04T00:04:34.129Z,1022.90
2023-02-04T00:05:07.211Z,1022.90
2023-02-04T00:05:39.717Z,1022.91
2023-02-04T00:06:12.181Z,1022.91
2023-02-04T00:06:44.750Z,1022.93
2023-02-04T00:07:18.107Z,1022.94
2023-02-04T00:07:51.822Z,1022.93
2023-02-04T00:08:26.547Z,1022.93
2023-02-04T00:08:59.016Z,1022.94
2023-02-04T00:09:31.982Z,1022.95
2023-02-04T00:10:04.863Z,1022.94
2023-02-04T00:10:37.380Z,1022.97
2023-02-04T00:11:09.931Z,1022.99
2023-02-04T00:11:42.415Z,1022.98
2023-02-04T00:12:14.850Z,1022.99
2023-02-04T00:12:47.277Z,1023.01
2023-02-04T00:13:19.827Z,1023.01
2023-02-04T00:13:55.223Z,1023.03
2023-02-04T00:14:27.698Z,1023.00
2023-02-04T00:15:00.550Z,1022.99
2023-02-04T00:15:33.449Z,1022.99
2023-02-04T00:16:05.974Z,1022.98
2023-02-04T00:16:38.386Z,1022.99
2023-02-04T00:17:10.859Z,1022.98
2023-02-04T00:17:43.384Z,1022.97
2023-02-04T00:18:15.853Z,1022.96
2023-02-04T00:18:48.815Z,1022.97
2023-02-04T00:19:21.346Z,1022.98
2023-02-04T00:19:53.801Z,1022.97
2023-02-04T00:20:26.254Z,1022.96
2023-02-04T00:20:58.717Z,1022.98
2023-02-04T00:21:31.515Z,1022.99
2023-02-04T00:22:04.502Z,1022.99
2023-02-04T00:22:37.327Z,1023.03
2023-02-04T00:23:09.818Z,1023.04
2023-02-04T00:23:42.542Z,1023.07
2023-02-04T00:24:14.966Z,1023.09
2023-02-04T00:24:48.754Z,1023.09
2023-02-04T00:25:24.765Z,1023.10
2023-02-04T00:26:12.262Z,1023.10
2023-02-04T00:26:44.746Z,1023.10
2023-02-04T00:27:18.121Z,1023.08
2023-02-04T00:27:50.758Z,1023.08
2023-02-04T00:28:23.172Z,1023.06
2023-02-04T00:28:56.128Z,1023.03
2023-02-04T00:29:28.675Z,1023.03
2023-02-04T00:30:01.304Z,1023.03
2023-02-04T00:30:34.119Z,1023.03
2023-02-04T00:31:07.073Z,1023.04
2023-02-04T00:31:39.627Z,1023.03
2023-02-04T00:32:12.312Z,1023.04
2023-02-04T00:32:44.618Z,1023.04
2023-02-04T00:33:17.048Z,1023.05
2023-02-04T00:33:49.503Z,1023.07
2023-02-04T00:34:24.364Z,1023.07
2023-02-04T00:34:56.792Z,1023.11
2023-02-04T00:35:29.293Z,1023.15
2023-02-04T00:36:01.746Z,1023.19
2023-02-04T00:36:34.189Z,1023.21
2023-02-04T00:37:06.629Z,1023.21
2023-02-04T00:37:39.077Z,1023.24
2023-02-04T00:38:11.567Z,1023.26
2023-02-04T00:38:44.044Z,1023.27
2023-02-04T00:39:16.503Z,1023.26
2023-02-04T00:39:48.958Z,1023.26
2023-02-04T00:40:21.395Z,1023.26
2023-02-04T00:40:53.869Z,1023.29
2023-02-04T00:41:26.304Z,1023.31
2023-02-04T00:41:58.754Z,1023.34
2023-02-04T00:42:31.256Z,1023.35
2023-02-04T00:43:03.658Z,1023.38
2023-02-04T00:43:36.136Z,1023.40
2023-02-04T00:44:08.621Z,1023.41
2023-02-04T00:44:41.145Z,1023.43
2023-02-04T00:45:13.598Z,1023.45
2023-02-04T00:45:46.065Z,1023.46
2023-02-04T00:46:18.474Z,1023.49
2023-02-04T00:46:50.929Z,1023.50
2023-02-04T00:47:23.489Z,1023.50
2023-02-04T00:47:55.935Z,1023.52
2023-02-04T00:48:28.367Z,1023.53
2023-02-04T00:49:00.815Z,1023.53
2023-02-04T00:49:33.257Z,1023.53
2023-02-04T00:50:05.680Z,1023.52
2023-02-04T00:50:38.169Z,1023.52
2023-02-04T00:51:10.567Z,1023.51
2023-02-04T00:51:43.090Z,1023.50
2023-02-04T00:52:15.527Z,1023.49
2023-02-04T00:52:47.967Z,1023.48
2023-02-04T00:53:20.408Z,1023.49
2023-02-04T00:53:52.847Z,1023.50
2023-02-04T00:54:25.286Z,1023.51
2023-02-04T00:54:57.783Z,1023.50
2023-02-04T00:55:30.231Z,1023.48
2023-02-04T00:56:02.672Z,1023.49
2023-02-04T00:56:35.090Z,1023.50
2023-02-04T00:57:07.524Z,1023.51
2023-02-04T00:57:39.969Z,1023.51
2023-02-04T00:58:12.398Z,1023.52
2023-02-04T00:58:44.877Z,1023.51
2023-02-04T00:59:17.294Z,1023.50
2023-02-04T00:59:49.772Z,1023.51
2023-02-04T01:00:22.198Z,1023.53
2023-02-04T01:00:54.679Z,1023.52
2023-02-04T01:01:27.117Z,1023.53
2023-02-04T01:01:59.570Z,1023.52
2023-02-04T01:02:32.072Z,1023.52
2023-02-04T01:03:04.589Z,1023.55
2023-02-04T01:03:36.954Z,1023.54
2023-02-04T01:04:09.418Z,1023.53
2023-02-04T01:04:41.931Z,1023.51
2023-02-04T01:05:14.430Z,1023.50
2023-02-04T01:05:46.938Z,1023.51
2023-02-04T01:06:19.474Z,1023.51
2023-02-04T01:06:51.934Z,1023.52
2023-02-04T01:07:24.504Z,1023.54
2023-02-04T01:07:56.878Z,1023.56
2023-02-04T01:08:29.338Z,1023.56
2023-02-04T01:09:01.790Z,1023.58
2023-02-04T01:09:34.259Z,1023.59
2023-02-04T01:10:06.711Z,1023.59
2023-02-04T01:10:39.184Z,1023.57
2023-02-04T01:11:11.630Z,1023.57
2023-02-04T01:11:44.193Z,1023.58
2023-02-04T01:12:16.741Z,1023.58
2023-02-04T01:12:49.230Z,1023.60
2023-02-04T01:13:21.677Z,1023.63
2023-02-04T01:13:54.136Z,1023.63
2023-02-04T01:14:26.568Z,1023.65
2023-02-04T01:14:59.031Z,1023.64
2023-02-04T01:15:32.169Z,1023.67
2023-02-04T01:16:04.625Z,1023.68
2023-02-04T01:16:37.112Z,1023.68
2023-02-04T01:17:09.599Z,1023.66
2023-02-04T01:17:42.073Z,1023.65
2023-02-04T01:18:14.674Z,1023.64
2023-02-04T01:18:47.151Z,1023.64
2023-02-04T01:19:19.690Z,1023.63
2023-02-04T01:19:52.240Z,1023.63
2023-02-04T01:20:24.690Z,1023.65
2023-02-04T01:20:57.131Z,1023.66
2023-02-04T01:21:29.552Z,1023.67
2023-02-04T01:22:01.977Z,1023.65
2023-02-04T01:22:34.436Z,1023.64
2023-02-04T01:23:06.852Z,1023.64
2023-02-04T01:23:39.334Z,1023.65
2023-02-04T01:24:11.760Z,1023.65
2023-02-04T01:24:44.209Z,1023.64
2023-02-04T01:25:16.649Z,1023.67
2023-02-04T01:25:49.088Z,1023.67
2023-02-04T01:26:21.522Z,1023.67
2023-02-04T01:26:53.989Z,1023.71
2023-02-04T01:27:26.414Z,1023.74
2023-02-04T01:27:59.630Z,1023.75
2023-02-04T01:28:32.185Z,1023.77
2023-02-04T01:29:04.619Z,1023.78
2023-02-04T01:29:37.087Z,1023.79
2023-02-04T01:30:09.694Z,1023.79
2023-02-04T01:30:42.230Z,1023.80
2023-02-04T01:31:14.750Z,1023.81
2023-02-04T01:31:47.140Z,1023.79
2023-02-04T01:32:19.507Z,1023.80
2023-02-04T01:32:52.058Z,1023.80
2023-02-04T01:33:24.488Z,1023.82
2023-02-04T01:33:56.942Z,1023.83
2023-02-04T01:34:29.363Z,1023.84
2023-02-04T01:35:01.862Z,1023.87
2023-02-04T01:35:34.336Z,1023.88
2023-02-04T01:36:06.792Z,1023.91
2023-02-04T01:36:39.241Z,1023.95
2023-02-04T01:37:11.693Z,1023.98
2023-02-04T01:37:44.146Z,1023.97
2023-02-04T01:38:17.010Z,1023.97
2023-02-04T01:38:49.442Z,1023.94
2023-02-04T01:39:21.886Z,1023.93
2023-02-04T01:39:54.338Z,1023.92
2023-02-04T01:40:26.813Z,1023.93
2023-02-04T01:40:59.386Z,1023.95
2023-02-04T01:41:31.807Z,1023.99
2023-02-04T01:42:04.285Z,1023.98
2023-02-04T01:42:36.730Z,1024.01
2023-02-04T01:43:09.164Z,1024.02
2023-02-04T01:43:41.612Z,1024.01
2023-02-04T01:44:14.103Z,1023.98
2023-02-04T01:44:47.213Z,1023.98
2023-02-04T01:45:19.669Z,1024.00
2023-02-04T01:45:52.179Z,1024.00
2023-02-04T01:46:24.591Z,1024.00
2023-02-04T01:46:57.032Z,1023.97
2023-02-04T01:47:29.518Z,1023.97
2023-02-04T01:48:01.949Z,1023.98
2023-02-04T01:48:34.424Z,1023.98
2023-02-04T01:49:06.878Z,1023.99
2023-02-04T01:49:39.389Z,1024.01
2023-02-04T01:50:11.842Z,1024.01
2023-02-04T01:50:44.315Z,1023.99
2023-02-04T01:51:16.789Z,1024.03
2023-02-04T01:51:49.205Z,1024.02
2023-02-04T01:52:21.663Z,1024.02
2023-02-04T01:52:54.154Z,1024.02
2023-02-04T01:53:26.602Z,1024.03
2023-02-04T01:53:59.018Z,1024.05
2023-02-04T01:54:31.478Z,1024.06
2023-02-04T01:55:03.953Z,1024.06
2023-02-04T01:55:36.425Z,1024.07
2023-02-04T01:56:08.880Z,1024.10
2023-02-04T01:56:41.302Z,1024.11
2023-02-04T01:57:13.757Z,1024.13
2023-02-04T01:57:46.277Z,1024.11
2023-02-04T01:58:18.755Z,1024.12
2023-02-04T01:58:51.218Z,1024.12
2023-02-04T01:59:23.743Z,1024.13
2023-02-04T01:59:56.201Z,1024.16
2023-02-04T02:00:28.934Z,1024.19
2023-02-04T02:01:01.204Z,1024.21
2023-02-04T02:01:33.590Z,1024.20
2023-02-04T02:02:06.092Z,1024.21
2023-02-04T02:02:38.658Z,1024.17
2023-02-04T02:03:11.026Z,1024.16
2023-02-04T02:03:43.476Z,1024.19
2023-02-04T02:04:15.942Z,1024.18
2023-02-04T02:04:48.536Z,1024.20
2023-02-04T02:05:20.991Z,1024.21
2023-02-04T02:05:53.448Z,1024.20
2023-02-04T02:06:25.895Z,1024.19
2023-02-04T02:06:58.363Z,1024.18
2023-02-04T02:07:30.841Z,1024.20
2023-02-04T02:08:03.291Z,1024.22
2023-02-04T02:08:35.728Z,1024.23
2023-02-04T02:09:08.202Z,1024.22
2023-02-04T02:09:40.653Z,1024.23
2023-02-04T02:10:13.109Z,1024.27
2023-02-04T02:10:45.627Z,1024.28
2023-02-04T02:11:18.166Z,1024.29
2023-02-04T02:11:50.637Z,1024.31
2023-02-04T02:12:23.083Z,1024.34
2023-02-04T02:12:55.530Z,1024.35
2023-02-04T02:13:27.977Z,1024.36
2023-02-04T02:14:00.438Z,1024.35
2023-02-04T02:14:32.930Z,1024.36
2023-02-04T02:15:05.327Z,1024.36
2023-02-04T02:15:37.783Z,1024.34
2023-02-04T02:16:10.258Z,1024.35
2023-02-04T02:16:42.806Z,1024.37
2023-02-04T02:17:15.244Z,1024.37
2023-02-04T02:17:47.741Z,1024.35
2023-02-04T02:18:20.367Z,1024.37
2023-02-04T02:18:52.943Z,1024.37
2023-02-04T02:19:25.397Z,1024.37
2023-02-04T02:19:57.865Z,1024.37
2023-02-04T02:20:30.734Z,1024.37
2023-02-04T02:21:04.344Z,1024.39
2023-02-04T02:21:37.677Z,1024.37
2023-02-04T02:22:10.125Z,1024.35
2023-02-04T02:22:42.590Z,1024.36
2023-02-04T02:23:15.056Z,1024.36
2023-02-04T02:23:47.554Z,1024.36
2023-02-04T02:24:20.082Z,1024.35
2023-02-04T02:24:52.652Z,1024.36
2023-02-04T02:25:25.102Z,1024.34
2023-02-04T02:25:57.625Z,1024.36
2023-02-04T02:26:30.064Z,1024.38
2023-02-04T02:27:02.507Z,1024.40
2023-02-04T02:27:35.009Z,1024.43
2023-02-04T02:28:07.581Z,1024.46
2023-02-04T02:28:40.029Z,1024.48
2023-02-04T02:29:12.463Z,1024.50
2023-02-04T02:29:45.128Z,1024.51
2023-02-04T02:30:17.740Z,1024.50
2023-02-04T02:30:50.179Z,1024.52
2023-02-04T02:31:23.543Z,1024.52
2023-02-04T02:31:57.245Z,1024.52
2023-02-04T02:32:29.658Z,1024.54
2023-02-04T02:33:02.145Z,1024.54
2023-02-04T02:33:35.612Z,1024.52
2023-02-04T02:34:08.056Z,1024.51
2023-02-04T02:34:40.961Z,1024.51
2023-02-04T02:35:13.493Z,1024.53
2023-02-04T02:35:45.959Z,1024.54
2023-02-04T02:36:18.391Z,1024.55
2023-02-04T02:36:50.983Z,1024.57
2023-02-04T02:37:24.225Z,1024.56
2023-02-04T02:37:56.769Z,1024.57
2023-02-04T02:38:30.394Z,1024.56
2023-02-04T02:39:02.885Z,1024.53
2023-02-04T02:39:35.467Z,1024.52
2023-02-04T02:40:07.911Z,1024.50
2023-02-04T02:40:40.403Z,1024.48
2023-02-04T02:41:12.944Z,1024.50
2023-02-04T02:41:46.926Z,1024.55
2023-02-04T02:42:20.226Z,1024.53
2023-02-04T02:42:52.806Z,1024.54
2023-02-04T02:43:25.345Z,1024.53
2023-02-04T02:43:58.387Z,1024.54
2023-02-04T02:44:30.843Z,1024.56
2023-02-04T02:45:03.321Z,1024.57
2023-02-04T02:45:36.152Z,1024.58
2023-02-04T02:46:08.638Z,1024.55
2023-02-04T02:46:41.056Z,1024.54
2023-02-04T02:47:13.935Z,1024.54
2023-02-04T02:47:46.797Z,1024.53
2023-02-04T02:48:21.126Z,1024.54
2023-02-04T02:48:53.568Z,1024.56
2023-02-04T02:49:26.008Z,1024.57
2023-02-04T02:49:58.473Z,1024.57
2023-02-04T02:50:31.247Z,1024.55
2023-02-04T02:51:03.417Z,1024.53
2023-02-04T02:51:35.904Z,1024.51
2023-02-04T02:52:08.539Z,1024.51
2023-02-04T02:52:41.750Z,1024.51
2023-02-04T02:53:14.211Z,1024.50
2023-02-04T02:53:47.785Z,1024.53
2023-02-04T02:54:20.415Z,1024.55
2023-02-04T02:54:53.843Z,1024.55
2023-02-04T02:55:26.360Z,1024.55
2023-02-04T02:55:58.812Z,1024.54
2023-02-04T02:56:31.356Z,1024.55
2023-02-04T02:57:04.981Z,1024.53
2023-02-04T02:57:37.442Z,1024.54
2023-02-04T02:58:10.737Z,1024.54
2023-02-04T02:58:43.160Z,1024.52
2023-02-04T02:59:15.624Z,1024.50
2023-02-04T02:59:48.118Z,1024.47
2023-02-04T03:00:20.605Z,1024.47
2023-02-04T03:00:53.182Z,1024.47
2023-02-04T03:01:25.614Z,1024.48
2023-02-04T03:01:58.024Z,1024.47
2023-02-04T03:02:30.595Z,1024.48
2023-02-04T03:03:02.963Z,1024.50
2023-02-04T03:03:36.115Z,1024.50
2023-02-04T03:04:08.545Z,1024.52
2023-02-04T03:04:41.676Z,1024.51
2023-02-04T03:05:14.924Z,1024.53
2023-02-04T03:05:47.380Z,1024.52
2023-02-04T03:06:19.836Z,1024.50
2023-02-04T03:06:52.262Z,1024.50
2023-02-04T03:07:25.209Z,1024.50
2023-02-04T03:07:57.631Z,1024.51
2023-02-04T03:08:30.069Z,1024.50
2023-02-04T03:09:02.508Z,1024.50
2023-02-04T03:09:34.996Z,1024.50
2023-02-04T03:10:08.222Z,1024.49
2023-02-04T03:10:40.687Z,1024.51
2023-02-04T03:11:13.138Z,1024.51
2023-02-04T03:11:45.587Z,1024.51
2023-02-04T03:12:18.264Z,1024.53
2023-02-04T03:12:51.760Z,1024.53
2023-02-04T03:13:24.215Z,1024.54
2023-02-04T03:13:56.651Z,1024.56
2023-02-04T03:14:30.039Z,1024.57
2023-02-04T03:15:02.498Z,1024.57
2023-02-04T03:15:35.009Z,1024.59
2023-02-04T03:16:07.582Z,1024.59
2023-02-04T03:16:42.104Z,1024.62
2023-02-04T03:17:14.586Z,1024.62
2023-02-04T03:17:48.322Z,1024.63
2023-02-04T03:18:20.763Z,1024.62
2023-02-04T03:18:54.986Z,1024.62
2023-02-04T03:19:28.043Z,1024.61
2023-02-04T03:20:00.509Z,1024.60
2023-02-04T03:20:33.255Z,1024.57
2023-02-04T03:21:05.404Z,1024.56
2023-02-04T03:21:38.369Z,1024.57
2023-02-04T03:22:10.859Z,1024.53
2023-02-04T03:22:44.226Z,1024.56
2023-02-04T03:23:17.165Z,1024.56
2023-02-04T03:23:49.453Z,1024.57
2023-02-04T03:24:21.959Z,1024.58
2023-02-04T03:24:54.506Z,1024.58
2023-02-04T03:25:26.942Z,1024.59
2023-02-04T03:25:59.420Z,1024.58
2023-02-04T03:26:31.938Z,1024.61
2023-02-04T03:27:05.150Z,1024.60
2023-02-04T03:27:38.376Z,1024.62
2023-02-04T03:28:10.814Z,1024.61
2023-02-04T03:28:43.227Z,1024.61
2023-02-04T03:29:15.646Z,1024.62
2023-02-04T03:29:48.136Z,1024.61
2023-02-04T03:30:20.921Z,1024.62
2023-02-04T03:30:53.495Z,1024.63
2023-02-04T03:31:25.950Z,1024.62
2023-02-04T03:31:58.471Z,1024.62
2023-02-04T03:32:30.771Z,1024.63
2023-02-04T03:33:03.237Z,1024.63
2023-02-04T03:33:35.682Z,1024.64
2023-02-04T03:34:08.107Z,1024.64
2023-02-04T03:34:41.760Z,1024.65
2023-02-04T03:35:14.112Z,1024.64
2023-02-04T03:35:46.565Z,1024.66
2023-02-04T03:36:19.963Z,1024.68
2023-02-04T03:36:52.588Z,1024.70
2023-02-04T03:37:25.038Z,1024.71
2023-02-04T03:37:59.177Z,1024.73
2023-02-04T03:38:31.625Z,1024.73
2023-02-04T03:39:04.281Z,1024.74
2023-02-04T03:39:36.744Z,1024.73
2023-02-04T03:40:09.202Z,1024.75
2023-02-04T03:40:41.905Z,1024.74
2023-02-04T03:41:14.450Z,1024.75
2023-02-04T03:41:47.016Z,1024.74
2023-02-04T03:42:19.482Z,1024.75
2023-02-04T03:42:51.918Z,1024.73
2023-02-04T03:43:24.397Z,1024.74
2023-02-04T03:43:56.968Z,1024.74
2023-02-04T03:44:30.450Z,1024.75
2023-02-04T03:45:02.904Z,1024.76
2023-02-04T03:45:44.974Z,1024.78
2023-02-04T03:46:08.567Z,1024.80
2023-02-04T03:46:40.958Z,1024.80
2023-02-04T03:47:13.414Z,1024.79
2023-02-04T03:47:45.959Z,1024.79
2023-02-04T03:48:18.614Z,1024.80
2023-02-04T03:48:51.143Z,1024.79
2023-02-04T03:49:23.554Z,1024.79
2023-02-04T03:49:56.044Z,1024.78
2023-02-04T03:50:28.613Z,1024.79
2023-02-04T03:51:01.037Z,1024.80
2023-02-04T03:51:34.574Z,1024.79
2023-02-04T03:52:07.482Z,1024.82
2023-02-04T03:52:39.971Z,1024.84
2023-02-04T03:53:12.410Z,1024.86
2023-02-04T03:53:44.849Z,1024.87
2023-02-04T03:54:17.420Z,1024.89
2023-02-04T03:54:49.879Z,1024.92
2023-02-04T03:55:22.972Z,1024.92
2023-02-04T03:55:56.104Z,1024.94
2023-02-04T03:56:28.689Z,1024.98
2023-02-04T03:57:01.183Z,1024.97
2023-02-04T03:57:33.702Z,1024.97
2023-02-04T03:58:06.362Z,1024.98
2023-02-04T03:58:39.045Z,1024.97
2023-02-04T03:59:12.518Z,1024.97
2023-02-04T03:59:44.958Z,1024.98
2023-02-04T04:00:17.434Z,1025.00
2023-02-04T04:00:49.965Z,1025.01
2023-02-04T04:01:22.443Z,1025.02
2023-02-04T04:01:54.867Z,1025.04
2023-02-04T04:02:27.364Z,1025.07
2023-02-04T04:02:59.956Z,1025.10
2023-02-04T04:03:32.336Z,1025.09
2023-02-04T04:04:04.806Z,1025.12
2023-02-04T04:04:37.440Z,1025.12
2023-02-04T04:05:09.898Z,1025.14
2023-02-04T04:05:42.351Z,1025.14
2023-02-04T04:06:14.792Z,1025.15
2023-02-04T04:06:47.251Z,1025.18
2023-02-04T04:07:19.732Z,1025.17
2023-02-04T04:07:52.145Z,1025.17
2023-02-04T04:08:24.608Z,1025.17
2023-02-04T04:08:57.778Z,1025.16
2023-02-04T04:09:30.997Z,1025.19
2023-02-04T04:10:03.404Z,1025.17
2023-02-04T04:10:35.893Z,1025.17
2023-02-04T04:11:09.806Z,1025.18
2023-02-04T04:11:42.228Z,1025.18
2023-02-04T04:12:14.735Z,1025.18
2023-02-04T04:12:47.872Z,1025.19
2023-02-04T04:13:20.353Z,1025.20
2023-02-04T04:13:53.361Z,1025.21
2023-02-04T04:14:25.779Z,1025.23
2023-02-04T04:14:59.314Z,1025.24
2023-02-04T04:15:31.751Z,1025.26
2023-02-04T04:16:04.233Z,1025.27
2023-02-04T04:16:36.700Z,1025.27
2023-02-04T04:17:10.203Z,1025.27
2023-02-04T04:17:42.219Z,1025.27
2023-02-04T04:18:15.359Z,1025.29
2023-02-04T04:18:47.824Z,1025.30
2023-02-04T04:19:21.241Z,1025.29
2023-02-04T04:19:53.674Z,1025.29
2023-02-04T04:20:26.148Z,1025.28
2023-02-04T04:20:58.640Z,1025.28
2023-02-04T04:21:31.084Z,1025.28
2023-02-04T04:22:03.614Z,1025.30
2023-02-04T04:22:36.075Z,1025.29
2023-02-04T04:23:09.145Z,1025.31
2023-02-04T04:23:41.598Z,1025.30
2023-02-04T04:24:14.019Z,1025.30
2023-02-04T04:24:46.466Z,1025.29
2023-02-04T04:25:18.899Z,1025.27
2023-02-04T04:25:51.400Z,1025.27
2023-02-04T04:26:23.843Z,1025.29
2023-02-04T04:26:56.420Z,1025.29
2023-02-04T04:27:29.994Z,1025.29
2023-02-04T04:28:02.736Z,1025.29
2023-02-04T04:28:35.138Z,1025.28
2023-02-04T04:29:08.653Z,1025.30
2023-02-04T04:29:42.357Z,1025.31
2023-02-04T04:30:14.794Z,1025.30
2023-02-04T04:30:49.773Z,1025.32
2023-02-04T04:31:22.330Z,1025.32
2023-02-04T04:31:55.098Z,1025.34
2023-02-04T04:32:27.462Z,1025.36
2023-02-04T04:33:02.470Z,1025.39
2023-02-04T04:33:35.684Z,1025.40
2023-02-04T04:34:08.093Z,1025.41
2023-02-04T04:34:41.326Z,1025.42
2023-02-04T04:35:13.736Z,1025.43
2023-02-04T04:35:46.164Z,1025.45
2023-02-04T04:36:18.613Z,1025.46
2023-02-04T04:36:52.033Z,1025.47
2023-02-04T04:37:24.557Z,1025.48
2023-02-04T04:37:57.498Z,1025.49
2023-02-04T04:38:30.485Z,1025.50
2023-02-04T04:39:02.938Z,1025.51
2023-02-04T04:39:35.377Z,1025.52
2023-02-04T04:40:07.820Z,1025.52
2023-02-04T04:40:40.302Z,1025.53
2023-02-04T04:41:12.780Z,1025.51
2023-02-04T04:41:45.232Z,1025.52
2023-02-04T04:42:18.443Z,1025.52
2023-02-04T04:42:51.082Z,1025.53
2023-02-04T04:43:23.598Z,1025.53
2023-02-04T04:43:56.095Z,1025.54
2023-02-04T04:44:29.992Z,1025.56
2023-02-04T04:45:02.455Z,1025.57
2023-02-04T04:45:34.953Z,1025.58
2023-02-04T04:46:08.247Z,1025.60
2023-02-04T04:46:40.723Z,1025.60
2023-02-04T04:47:13.124Z,1025.62
2023-02-04T04:47:45.551Z,1025.63
2023-02-04T04:48:17.979Z,1025.63
2023-02-04T04:48:51.545Z,1025.64
2023-02-04T04:49:24.940Z,1025.67
2023-02-04T04:49:57.358Z,1025.68
2023-02-04T04:50:30.061Z,1025.69
2023-02-04T04:51:02.295Z,1025.71
2023-02-04T04:51:36.709Z,1025.71
2023-02-04T04:52:09.134Z,1025.71
2023-02-04T04:52:41.583Z,1025.73
2023-02-04T04:53:14.020Z,1025.74
2023-02-04T04:53:46.482Z,1025.74
2023-02-04T04:54:18.921Z,1025.73
2023-02-04T04:54:52.627Z,1025.70
2023-02-04T04:55:25.153Z,1025.68
2023-02-04T04:55:58.409Z,1025.69
2023-02-04T04:56:30.877Z,1025.68
2023-02-04T04:57:03.405Z,1025.69
2023-02-04T04:57:35.925Z,1025.69
2023-02-04T04:58:08.896Z,1025.70
2023-02-04T04:58:41.367Z,1025.72
2023-02-04T04:59:13.862Z,1025.70
2023-02-04T04:59:46.300Z,1025.70
2023-02-04T05:00:19.427Z,1025.69
2023-02-04T05:00:52.197Z,1025.68
2023-02-04T05:01:24.489Z,1025.67
2023-02-04T05:01:56.921Z,1025.65
2023-02-04T05:02:29.352Z,1025.64
2023-02-04T05:03:01.820Z,1025.65
2023-02-04T05:03:34.278Z,1025.64
2023-02-04T05:04:06.804Z,1025.64
2023-02-04T05:04:39.286Z,1025.65
2023-02-04T05:05:11.734Z,1025.67
2023-02-04T05:05:44.186Z,1025.69
2023-02-04T05:06:17.810Z,1025.69
2023-02-04T05:06:50.246Z,1025.73
2023-02-04T05:07:22.668Z,1025.76
2023-02-04T05:07:55.661Z,1025.78
2023-02-04T05:08:28.124Z,1025.79
2023-02-04T05:09:00.743Z,1025.80
2023-02-04T05:09:33.200Z,1025.80
2023-02-04T05:10:05.951Z,1025.82
2023-02-04T05:10:39.190Z,1025.82
2023-02-04T05:11:11.672Z,1025.82
2023-02-04T05:11:44.467Z,1025.84
2023-02-04T05:12:16.907Z,1025.83
2023-02-04T05:12:49.383Z,1025.86
2023-02-04T05:13:21.802Z,1025.89
2023-02-04T05:13:54.261Z,1025.89
2023-02-04T05:14:26.987Z,1025.91
2023-02-04T05:14:59.441Z,1025.91
2023-02-04T05:15:39.492Z,1025.92
2023-02-04T05:16:12.176Z,1025.93
2023-02-04T05:16:44.549Z,1025.93
2023-02-04T05:17:16.958Z,1025.94
2023-02-04T05:17:49.437Z,1025.95
2023-02-04T05:18:21.883Z,1025.95
2023-02-04T05:18:54.305Z,1025.95
2023-02-04T05:19:26.717Z,1025.97
2023-02-04T05:19:59.177Z,1025.97
2023-02-04T05:20:31.884Z,1025.97
2023-02-04T05:21:04.145Z,1026.01
2023-02-04T05:21:36.590Z,1026.02
2023-02-04T05:22:09.050Z,1026.03
2023-02-04T05:22:41.483Z,1026.05
2023-02-04T05:23:13.942Z,1026.08
2023-02-04T05:23:46.435Z,1026.09
2023-02-04T05:24:18.894Z,1026.12
2023-02-04T05:24:51.327Z,1026.13
2023-02-04T05:25:23.762Z,1026.14
2023-02-04T05:25:56.212Z,1026.14
2023-02-04T05:26:30.863Z,1026.14
2023-02-04T05:27:01.098Z,1026.15
2023-02-04T05:27:33.532Z,1026.15
2023-02-04T05:28:06.060Z,1026.15
2023-02-04T05:28:38.472Z,1026.17
2023-02-04T05:29:10.926Z,1026.18
2023-02-04T05:29:43.368Z,1026.18
2023-02-04T05:30:15.812Z,1026.19
2023-02-04T05:30:48.316Z,1026.20
2023-02-04T05:31:20.803Z,1026.21
2023-02-04T05:31:53.299Z,1026.21
2023-02-04T05:32:25.614Z,1026.22
2023-02-04T05:32:58.080Z,1026.23
2023-02-04T05:33:30.566Z,1026.25
2023-02-04T05:34:02.990Z,1026.24
2023-02-04T05:34:35.442Z,1026.24
2023-02-04T05:35:07.974Z,1026.24
2023-02-04T05:35:40.509Z,1026.24
2023-02-04T05:36:12.968Z,1026.25
2023-02-04T05:36:45.454Z,1026.26
2023-02-04T05:37:17.966Z,1026.24
2023-02-04T05:37:50.407Z,1026.23
2023-02-04T05:38:22.848Z,1026.24
2023-02-04T05:38:55.291Z,1026.23
2023-02-04T05:39:27.887Z,1026.22
2023-02-04T05:40:00.318Z,1026.24
2023-02-04T05:40:33.066Z,1026.23
2023-02-04T05:41:05.239Z,1026.22
2023-02-04T05:41:37.672Z,1026.24
2023-02-04T05:42:10.121Z,1026.25
2023-02-04T05:42:42.552Z,1026.26
2023-02-04T05:43:15.010Z,1026.26
2023-02-04T05:43:47.429Z,1026.25
2023-02-04T05:44:19.897Z,1026.26
2023-02-04T05:44:52.324Z,1026.26
2023-02-04T05:45:24.809Z,1026.25
2023-02-04T05:45:57.244Z,1026.27
2023-02-04T05:46:29.714Z,1026.27
2023-02-04T05:47:02.098Z,1026.29
2023-02-04T05:47:34.596Z,1026.28
2023-02-04T05:48:07.006Z,1026.28
2023-02-04T05:48:39.466Z,1026.28
2023-02-04T05:49:11.905Z,1026.28
2023-02-04T05:49:44.377Z,1026.29
2023-02-04T05:50:16.977Z,1026.28
2023-02-04T05:50:49.452Z,1026.29
2023-02-04T05:51:21.900Z,1026.30
2023-02-04T05:51:54.344Z,1026.30
2023-02-04T05:52:26.822Z,1026.30
2023-02-04T05:52:59.281Z,1026.31
2023-02-04T05:53:31.745Z,1026.33
2023-02-04T05:54:04.207Z,1026.33
2023-02-04T05:54:36.652Z,1026.33
2023-02-04T05:55:09.164Z,1026.35
2023-02-04T05:55:41.634Z,1026.34
2023-02-04T05:56:14.079Z,1026.35
2023-02-04T05:56:46.543Z,1026.35
2023-02-04T05:57:18.951Z,1026.35
2023-02-04T05:57:51.422Z,1026.37
2023-02-04T05:58:24.796Z,1026.39
2023-02-04T05:58:57.286Z,1026.41
2023-02-04T05:59:29.751Z,1026.42
2023-02-04T06:00:02.197Z,1026.44
2023-02-04T06:00:34.725Z,1026.45
2023-02-04T06:01:07.119Z,1026.46
2023-02-04T06:01:39.542Z,1026.46
2023-02-04T06:02:11.964Z,1026.46
2023-02-04T06:02:44.433Z,1026.47
2023-02-04T06:03:16.980Z,1026.47
2023-02-04T06:03:49.434Z,1026.50
2023-02-04T06:04:21.991Z,1026.51
2023-02-04T06:04:54.342Z,1026.51
2023-02-04T06:05:26.828Z,1026.54
2023-02-04T06:05:59.277Z,1026.56
2023-02-04T06:06:31.757Z,1026.56
2023-02-04T06:07:04.271Z,1026.57
2023-02-04T06:07:36.768Z,1026.58
2023-02-04T06:08:09.233Z,1026.57
2023-02-04T06:08:41.712Z,1026.58
2023-02-04T06:09:14.137Z,1026.57
2023-02-04T06:09:46.590Z,1026.59
2023-02-04T06:10:19.035Z,1026.58
2023-02-04T06:10:51.493Z,1026.57
2023-02-04T06:11:23.986Z,1026.58
2023-02-04T06:11:56.427Z,1026.59
2023-02-04T06:12:28.907Z,1026.60
2023-02-04T06:13:01.429Z,1026.59
2023-02-04T06:13:33.909Z,1026.59
2023-02-04T06:14:06.394Z,1026.59
2023-02-04T06:14:38.862Z,1026.59
2023-02-04T06:15:11.293Z,1026.60
2023-02-04T06:15:43.746Z,1026.58
2023-02-04T06:16:16.235Z,1026.60
2023-02-04T06:16:48.724Z,1026.59
2023-02-04T06:17:21.136Z,1026.60
2023-02-04T06:17:53.629Z,1026.61
2023-02-04T06:18:26.071Z,1026.61
2023-02-04T06:18:58.547Z,1026.63
2023-02-04T06:19:30.975Z,1026.66
2023-02-04T06:20:03.439Z,1026.68
2023-02-04T06:20:35.915Z,1026.70
2023-02-04T06:21:08.367Z,1026.71
2023-02-04T06:21:40.869Z,1026.71
2023-02-04T06:22:13.383Z,1026.70
2023-02-04T06:22:45.850Z,1026.73
2023-02-04T06:23:18.323Z,1026.74
2023-02-04T06:23:50.782Z,1026.74
2023-02-04T06:24:23.254Z,1026.73
2023-02-04T06:24:55.711Z,1026.74
2023-02-04T06:25:28.171Z,1026.75
2023-02-04T06:26:08.191Z,1026.74
2023-02-04T06:26:41.051Z,1026.74
2023-02-04T06:27:13.517Z,1026.74
2023-02-04T06:27:46.014Z,1026.75
2023-02-04T06:28:18.514Z,1026.76
2023-02-04T06:28:50.941Z,1026.76
2023-02-04T06:29:23.407Z,1026.75
2023-02-04T06:29:55.875Z,1026.77
2023-02-04T06:30:28.416Z,1026.77
2023-02-04T06:31:00.878Z,1026.76
2023-02-04T06:31:33.317Z,1026.79
2023-02-04T06:32:05.666Z,1026.80
2023-02-04T06:32:38.113Z,1026.82
2023-02-04T06:33:10.719Z,1026.82
2023-02-04T06:33:44.349Z,1026.81
2023-02-04T06:34:17.953Z,1026.79
2023-02-04T06:34:50.432Z,1026.79